Time;durP1;ratioP1;P1;durP2;ratioP2;P2;SDS_P1;SDS_P2;PMS_P1;PMS_P2;Temp;Humidity;BMP_temperature;BMP_pressure;BME280_temperature;BME280_humidity;BME280_pressure;Samples;Min_cycle;Max_cycle;Signal;HPM_P1;HPM_P2
2023/03/23 00:01:12;;;;;;;13.93;9.27;;;14.70;99.90;;;;;;4963325;28;20245;-64
2023/03/23 00:03:40;;;;;;;11.67;8.50;;;14.70;99.90;;;;;;4953811;28;20231;-65
2023/03/23 00:06:10;;;;;;;12.97;7.97;;;14.60;99.90;;;;;;4947455;28;20219;-65
2023/03/23 00:08:44;;;;;;;8.17;6.70;;;14.60;99.90;;;;;;4950422;28;20204;-65
2023/03/23 00:11:14;;;;;;;8.33;6.03;;;14.60;99.90;;;;;;4968030;28;21517;-65
2023/03/23 00:13:42;;;;;;;6.67;5.50;;;14.60;99.90;;;;;;4966743;28;20591;-65
2023/03/23 00:16:17;;;;;;;10.17;6.17;;;14.60;99.90;;;;;;4962464;28;20254;-65
2023/03/23 00:18:45;;;;;;;7.90;5.57;;;14.60;99.90;;;;;;4962020;28;20278;-65
2023/03/23 00:21:13;;;;;;;6.23;5.53;;;14.60;99.90;;;;;;4962642;28;20208;-65
2023/03/23 00:23:44;;;;;;;11.00;7.50;;;14.60;99.90;;;;;;4970140;28;20254;-65
2023/03/23 00:26:12;;;;;;;14.63;8.27;;;14.60;99.90;;;;;;4970611;28;20200;-65
2023/03/23 00:28:39;;;;;;;20.90;11.30;;;14.60;99.90;;;;;;4961701;28;20568;-64
2023/03/23 00:31:09;;;;;;;15.70;9.70;;;14.60;99.90;;;;;;4967613;28;20199;-65
2023/03/23 00:33:40;;;;;;;12.00;7.40;;;14.60;99.90;;;;;;4970275;28;20274;-65
2023/03/23 00:36:08;;;;;;;12.00;7.97;;;14.50;99.90;;;;;;4952753;28;20245;-65
2023/03/23 00:38:38;;;;;;;13.30;8.03;;;14.50;99.90;;;;;;4953223;28;20226;-64
2023/03/23 00:41:06;;;;;;;11.90;7.13;;;14.50;99.90;;;;;;4969351;28;20700;-65
2023/03/23 00:43:35;;;;;;;10.03;6.37;;;14.50;99.90;;;;;;4970597;28;20226;-65
2023/03/23 00:46:08;;;;;;;13.87;8.20;;;14.50;99.90;;;;;;4965516;28;20727;-65
2023/03/23 00:48:40;;;;;;;13.27;8.43;;;14.50;99.90;;;;;;4952194;28;20239;-65
2023/03/23 00:51:11;;;;;;;11.23;7.10;;;14.40;99.90;;;;;;4965380;28;20286;-65
2023/03/23 00:53:40;;;;;;;9.10;6.00;;;14.40;99.90;;;;;;4963156;28;20261;-65
2023/03/23 00:56:09;;;;;;;7.20;5.53;;;14.40;99.90;;;;;;4971182;28;20597;-63
2023/03/23 00:58:37;;;;;;;8.37;5.80;;;14.40;99.90;;;;;;4967065;28;20213;-66
2023/03/23 01:01:04;;;;;;;7.30;6.20;;;14.40;99.90;;;;;;4952578;28;20218;-63
2023/03/23 01:03:31;;;;;;;10.93;7.00;;;14.40;99.90;;;;;;4970748;28;20240;-63
2023/03/23 01:06:08;;;;;;;8.70;6.23;;;14.40;99.90;;;;;;4969729;28;20286;-64
2023/03/23 01:08:36;;;;;;;6.47;5.40;;;14.40;99.90;;;;;;4945039;29;20286;-64
2023/03/23 01:11:07;;;;;;;6.77;5.43;;;14.40;99.90;;;;;;4970188;28;20281;-64
2023/03/23 01:13:34;;;;;;;8.43;6.27;;;14.40;99.90;;;;;;4965895;28;20208;-64
2023/03/23 01:16:02;;;;;;;7.33;6.37;;;14.40;99.90;;;;;;4966194;28;20202;-64
2023/03/23 01:18:30;;;;;;;10.93;7.67;;;14.40;99.90;;;;;;4965686;28;20206;-65
2023/03/23 01:20:57;;;;;;;8.77;6.80;;;14.40;99.90;;;;;;4954321;28;20216;-65
2023/03/23 01:23:24;;;;;;;6.60;5.37;;;14.30;99.90;;;;;;4967464;28;20206;-65
2023/03/23 01:25:54;;;;;;;7.53;5.17;;;14.30;99.90;;;;;;4962394;28;20221;-64
2023/03/23 01:28:22;;;;;;;6.10;5.13;;;14.20;99.90;;;;;;4974218;28;20213;-64
2023/03/23 01:30:49;;;;;;;8.00;5.73;;;14.20;99.90;;;;;;4970728;28;20685;-64
2023/03/23 01:33:17;;;;;;;5.23;4.70;;;14.20;99.90;;;;;;4956360;28;20622;-65
2023/03/23 01:35:44;;;;;;;5.63;4.30;;;14.20;99.90;;;;;;4973221;28;20664;-64
2023/03/23 01:38:11;;;;;;;4.77;4.00;;;14.20;99.90;;;;;;4967591;28;20196;-64
2023/03/23 01:40:38;;;;;;;6.50;4.70;;;14.20;99.90;;;;;;4955036;28;20222;-64
2023/03/23 01:43:12;;;;;;;4.63;4.10;;;14.30;99.90;;;;;;4967623;28;20196;-65
2023/03/23 01:45:42;;;;;;;6.27;4.93;;;14.30;99.90;;;;;;4968559;28;20260;-65
2023/03/23 01:48:16;;;;;;;9.67;6.60;;;14.30;99.90;;;;;;4952978;28;20211;-64
2023/03/23 01:50:51;;;;;;;6.40;5.03;;;14.30;99.90;;;;;;4946581;28;20220;-65
2023/03/23 01:53:20;;;;;;;8.57;6.23;;;14.30;99.90;;;;;;4955267;28;20549;-64
2023/03/23 01:55:51;;;;;;;12.73;8.00;;;14.30;99.90;;;;;;4955368;28;20767;-64
2023/03/23 01:58:25;;;;;;;19.43;11.67;;;14.30;99.90;;;;;;4969105;28;20251;-65
2023/03/23 02:00:55;;;;;;;16.03;9.27;;;14.20;99.90;;;;;;4954327;28;20215;-65
2023/03/23 02:03:24;;;;;;;18.73;10.33;;;14.20;99.90;;;;;;4949979;28;20240;-64
2023/03/23 02:05:52;;;;;;;13.27;8.97;;;14.20;99.90;;;;;;4952393;28;20232;-65
2023/03/23 02:08:29;;;;;;;13.53;8.20;;;14.20;99.90;;;;;;4954667;28;20210;-65
2023/03/23 02:10:56;;;;;;;10.00;6.57;;;14.10;99.90;;;;;;4968256;28;20231;-64
2023/03/23 02:13:24;;;;;;;8.40;5.70;;;14.10;99.90;;;;;;4940782;28;20207;-64
2023/03/23 02:16:03;;;;;;;6.67;5.30;;;14.10;99.90;;;;;;4953751;28;20622;-64
2023/03/23 02:18:50;;;;;;;7.07;5.30;;;14.10;99.90;;;;;;4969710;28;20198;-65
2023/03/23 02:22:14;;;;;;;6.53;5.07;;;14.10;99.90;;;;;;4950299;28;20305;-64
2023/03/23 02:24:54;;;;;;;8.70;6.10;;;14.10;99.90;;;;;;4970432;28;20217;-65
2023/03/23 02:27:43;;;;;;;7.10;4.80;;;14.10;99.90;;;;;;4954018;28;20207;-64
2023/03/23 02:30:22;;;;;;;8.27;6.07;;;14.00;99.90;;;;;;4972314;28;20210;-64
2023/03/23 02:33:22;;;;;;;11.40;6.97;;;14.00;99.90;;;;;;4970267;28;20253;-64
2023/03/23 02:35:54;;;;;;;10.53;7.17;;;14.00;99.90;;;;;;4953397;28;20206;-65
2023/03/23 02:38:28;;;;;;;11.63;6.37;;;14.00;99.90;;;;;;4948707;28;20206;-65
2023/03/23 02:40:57;;;;;;;10.93;7.77;;;13.90;99.90;;;;;;4964372;28;20199;-65
2023/03/23 02:43:27;;;;;;;10.53;7.23;;;13.90;99.90;;;;;;4971230;28;20200;-65
2023/03/23 02:45:56;;;;;;;12.93;7.77;;;13.90;99.90;;;;;;4950704;28;20237;-64
2023/03/23 02:48:30;;;;;;;10.37;7.00;;;13.90;99.90;;;;;;4971545;28;20208;-65
2023/03/23 02:51:00;;;;;;;11.70;7.73;;;13.80;99.90;;;;;;4968369;28;20210;-65
2023/03/23 02:53:29;;;;;;;14.03;7.70;;;13.80;99.90;;;;;;4971431;28;20218;-64
2023/03/23 02:55:58;;;;;;;12.40;6.90;;;13.80;99.90;;;;;;4954773;28;20207;-65
2023/03/23 02:58:31;;;;;;;7.80;5.80;;;13.70;99.90;;;;;;4952491;28;20203;-64
2023/03/23 03:01:00;;;;;;;8.80;6.60;;;13.70;99.90;;;;;;4958172;28;20203;-64
2023/03/23 03:03:31;;;;;;;9.87;7.17;;;13.60;99.90;;;;;;4944404;28;20248;-64
2023/03/23 03:06:11;;;;;;;8.23;6.00;;;13.50;99.90;;;;;;4948072;29;20749;-64
2023/03/23 03:08:46;;;;;;;9.70;6.30;;;13.50;99.90;;;;;;4946860;29;20207;-64
2023/03/23 03:11:15;;;;;;;9.43;6.80;;;13.40;99.90;;;;;;4951896;29;20206;-64
2023/03/23 03:13:50;;;;;;;13.50;7.27;;;13.40;99.90;;;;;;4951910;29;20210;-65
2023/03/23 03:16:26;;;;;;;11.20;6.60;;;13.40;99.90;;;;;;4949181;29;20222;-64
2023/03/23 03:18:59;;;;;;;7.03;5.60;;;13.40;99.90;;;;;;4951020;29;20213;-63
2023/03/23 03:21:30;;;;;;;5.63;5.07;;;13.30;99.90;;;;;;4951356;29;20218;-64
2023/03/23 03:24:01;;;;;;;6.70;5.37;;;13.30;99.90;;;;;;4951432;29;20338;-65
2023/03/23 03:26:31;;;;;;;8.43;5.90;;;13.40;99.90;;;;;;4951398;29;20632;-65
2023/03/23 03:29:12;;;;;;;9.33;6.57;;;13.30;99.90;;;;;;4944579;29;20736;-65
2023/03/23 03:31:50;;;;;;;9.03;6.20;;;13.40;99.90;;;;;;4946311;28;20190;-65
2023/03/23 03:34:18;;;;;;;6.87;5.30;;;13.30;99.90;;;;;;4953010;28;20234;-65
2023/03/23 03:36:50;;;;;;;5.83;4.43;;;13.30;99.90;;;;;;4951535;29;20583;-65
2023/03/23 03:39:19;;;;;;;6.30;4.80;;;13.30;99.90;;;;;;4944805;29;20728;-65
2023/03/23 03:41:47;;;;;;;4.57;3.90;;;13.30;99.90;;;;;;4948310;29;20297;-65
2023/03/23 03:44:14;;;;;;;7.70;5.83;;;13.30;99.90;;;;;;4949888;28;20238;-65
2023/03/23 03:46:42;;;;;;;8.30;5.40;;;13.30;99.90;;;;;;4950845;29;20307;-65
2023/03/23 03:49:12;;;;;;;8.70;6.43;;;13.30;99.90;;;;;;4948275;29;20289;-65
2023/03/23 03:51:42;;;;;;;11.10;6.67;;;13.30;99.90;;;;;;4948071;29;20207;-65
2023/03/23 03:54:15;;;;;;;7.03;5.03;;;13.30;99.90;;;;;;4941451;29;20317;-66
2023/03/23 03:56:43;;;;;;;11.60;6.83;;;13.30;99.90;;;;;;4951010;29;20234;-66
2023/03/23 03:59:32;;;;;;;9.67;6.13;;;13.30;99.90;;;;;;4939844;28;20727;-66
2023/03/23 04:02:31;;;;;;;7.83;6.00;;;13.20;99.90;;;;;;4931417;28;20235;-66
2023/03/23 04:04:58;;;;;;;9.60;6.10;;;13.20;99.90;;;;;;4946884;28;20216;-64
2023/03/23 04:07:29;;;;;;;9.03;5.90;;;13.20;99.90;;;;;;4952217;28;20304;-64
2023/03/23 04:09:57;;;;;;;6.03;5.10;;;13.10;99.90;;;;;;4952094;28;20773;-65
2023/03/23 04:12:24;;;;;;;8.13;5.50;;;13.00;99.90;;;;;;4939606;28;20212;-64
2023/03/23 04:14:58;;;;;;;8.53;5.90;;;13.00;99.90;;;;;;4969344;28;20195;-64
2023/03/23 04:17:31;;;;;;;7.97;5.40;;;13.00;99.90;;;;;;4956530;28;20231;-64
2023/03/23 04:19:59;;;;;;;8.17;6.17;;;13.00;99.90;;;;;;4948390;28;20214;-64
2023/03/23 04:22:30;;;;;;;7.47;5.37;;;12.90;99.90;;;;;;4943698;28;20563;-63
2023/03/23 04:25:02;;;;;;;7.83;5.40;;;12.90;99.90;;;;;;4952698;28;20219;-66
2023/03/23 04:27:30;;;;;;;6.23;4.37;;;12.90;99.90;;;;;;4953449;28;20209;-65
2023/03/23 04:30:00;;;;;;;6.73;5.40;;;12.90;99.90;;;;;;4951884;28;20574;-66
2023/03/23 04:32:41;;;;;;;8.90;5.43;;;12.90;99.90;;;;;;4969124;28;20212;-64
2023/03/23 04:35:12;;;;;;;8.10;5.70;;;12.90;99.90;;;;;;4968001;28;20204;-64
2023/03/23 04:37:46;;;;;;;5.97;4.90;;;12.90;99.90;;;;;;4950469;28;20239;-65
2023/03/23 04:40:17;;;;;;;4.90;3.93;;;12.90;99.90;;;;;;4952812;28;20605;-64
2023/03/23 04:42:57;;;;;;;9.20;5.43;;;12.90;99.90;;;;;;4950358;28;20211;-64
2023/03/23 04:45:37;;;;;;;7.13;5.70;;;12.90;99.90;;;;;;4956951;28;20206;-65
2023/03/23 04:48:06;;;;;;;7.67;5.87;;;13.00;99.90;;;;;;4950913;28;20383;-65
2023/03/23 04:50:42;;;;;;;7.00;4.83;;;13.00;99.90;;;;;;4950998;28;20213;-65
2023/03/23 04:53:20;;;;;;;6.63;4.93;;;13.00;99.90;;;;;;4952068;28;20700;-65
2023/03/23 04:55:49;;;;;;;6.17;4.93;;;13.00;99.90;;;;;;4956575;28;20213;-65
2023/03/23 04:58:19;;;;;;;8.03;5.17;;;13.00;99.90;;;;;;4954615;28;20575;-66
2023/03/23 05:01:09;;;;;;;8.27;5.03;;;13.00;99.90;;;;;;4955432;28;20317;-66
2023/03/23 05:03:50;;;;;;;10.17;6.13;;;13.00;99.90;;;;;;4955499;28;20271;-65
2023/03/23 05:06:17;;;;;;;7.13;5.43;;;13.00;99.90;;;;;;4973224;28;20316;-65
2023/03/23 05:08:46;;;;;;;6.90;5.37;;;13.00;99.90;;;;;;4954226;28;20540;-65
2023/03/23 05:11:13;;;;;;;7.07;4.90;;;13.00;99.90;;;;;;4955176;28;20706;-65
2023/03/23 05:13:44;;;;;;;8.37;5.53;;;13.00;99.90;;;;;;4952580;28;20213;-66
2023/03/23 05:16:12;;;;;;;7.80;5.40;;;13.00;99.90;;;;;;4955705;28;20583;-64
2023/03/23 05:18:41;;;;;;;7.70;5.63;;;13.10;99.90;;;;;;4952593;28;20197;-65
2023/03/23 05:21:11;;;;;;;5.50;4.20;;;13.10;99.90;;;;;;4955567;28;20284;-65
2023/03/23 05:23:42;;;;;;;11.50;5.93;;;13.10;99.90;;;;;;4956786;28;20206;-65
2023/03/23 05:26:20;;;;;;;7.17;5.20;;;13.10;99.90;;;;;;4956424;28;20221;-65
2023/03/23 05:28:53;;;;;;;8.00;5.00;;;13.10;99.90;;;;;;4953087;29;20296;-65
2023/03/23 05:31:25;;;;;;;4.77;4.00;;;13.10;99.90;;;;;;4952230;28;20917;-65
2023/03/23 05:33:53;;;;;;;7.60;4.60;;;13.20;99.90;;;;;;4951995;29;20210;-65
2023/03/23 05:36:27;;;;;;;9.37;5.00;;;13.20;99.90;;;;;;4950547;28;20603;-65
2023/03/23 05:39:24;;;;;;;10.70;5.80;;;13.20;99.90;;;;;;4961038;28;20663;-65
2023/03/23 05:42:11;;;;;;;8.80;5.83;;;13.30;99.90;;;;;;4955954;28;20282;-65
2023/03/23 05:44:48;;;;;;;7.43;4.60;;;13.20;99.90;;;;;;4952274;28;20205;-66
2023/03/23 05:47:16;;;;;;;5.70;4.57;;;13.30;99.90;;;;;;4962083;28;20217;-65
2023/03/23 05:49:50;;;;;;;8.00;5.27;;;13.20;99.90;;;;;;4954247;28;20225;-65
2023/03/23 05:52:20;;;;;;;8.23;5.47;;;13.20;99.90;;;;;;4953943;28;20241;-66
2023/03/23 05:54:48;;;;;;;7.17;4.97;;;13.20;99.90;;;;;;4951791;28;20202;-66
2023/03/23 05:57:18;;;;;;;6.40;4.10;;;13.20;99.90;;;;;;4955962;28;20261;-66
2023/03/23 05:59:52;;;;;;;7.23;5.13;;;13.30;99.90;;;;;;4956205;28;20221;-66
2023/03/23 06:02:24;;;;;;;8.87;4.93;;;13.30;99.90;;;;;;4955609;28;20268;-66
2023/03/23 06:04:57;;;;;;;10.97;6.60;;;13.30;99.90;;;;;;4953908;28;20206;-65
2023/03/23 06:07:29;;;;;;;13.67;6.80;;;13.30;99.90;;;;;;4954769;28;20205;-65
2023/03/23 06:10:03;;;;;;;10.70;6.13;;;13.30;99.90;;;;;;4951661;28;20268;-65
2023/03/23 06:12:39;;;;;;;9.37;6.10;;;13.30;99.90;;;;;;4946567;28;20223;-65
2023/03/23 06:15:21;;;;;;;12.53;6.50;;;13.30;99.90;;;;;;4955793;28;20206;-65
2023/03/23 06:18:08;;;;;;;9.67;5.73;;;13.30;99.90;;;;;;4968408;28;20261;-65
2023/03/23 06:20:49;;;;;;;12.20;6.77;;;13.30;99.90;;;;;;4946307;29;20221;-65
2023/03/23 06:23:45;;;;;;;9.03;5.57;;;13.30;99.90;;;;;;4954222;28;20233;-64
2023/03/23 06:26:16;;;;;;;8.57;5.70;;;13.30;99.90;;;;;;4954467;28;20294;-65
2023/03/23 06:28:46;;;;;;;10.73;6.47;;;13.30;99.90;;;;;;4945590;28;20206;-64
2023/03/23 06:31:14;;;;;;;7.47;4.97;;;13.30;99.90;;;;;;4972539;28;20198;-64
2023/03/23 06:33:42;;;;;;;11.50;5.53;;;13.30;99.90;;;;;;4956278;28;20210;-65
2023/03/23 06:36:43;;;;;;;11.00;5.77;;;13.30;99.90;;;;;;4927606;28;20316;-65
2023/03/23 06:39:18;;;;;;;7.13;5.30;;;13.30;99.90;;;;;;4956048;28;20210;-65
2023/03/23 06:41:59;;;;;;;12.33;6.77;;;13.30;99.90;;;;;;4953044;28;20292;-65
2023/03/23 06:44:28;;;;;;;10.47;5.37;;;13.40;99.90;;;;;;4952529;28;20750;-64
2023/03/23 06:46:55;;;;;;;13.47;6.50;;;13.40;99.90;;;;;;4956316;28;20248;-64
2023/03/23 06:49:28;;;;;;;9.77;6.13;;;13.40;99.90;;;;;;4955353;28;20784;-64
2023/03/23 06:52:05;;;;;;;11.47;5.93;;;13.40;99.90;;;;;;4954183;28;20697;-65
2023/03/23 06:54:33;;;;;;;8.87;5.30;;;13.40;99.90;;;;;;4953490;28;20579;-64
2023/03/23 06:57:02;;;;;;;8.77;5.20;;;13.50;99.90;;;;;;4954655;28;20225;-65
2023/03/23 06:59:31;;;;;;;9.83;6.40;;;13.50;99.90;;;;;;4954580;28;20207;-64
2023/03/23 07:01:59;;;;;;;12.13;6.93;;;13.50;99.90;;;;;;4954533;28;20263;-64
2023/03/23 07:04:26;;;;;;;14.13;6.77;;;13.60;99.90;;;;;;4972320;28;20247;-63
2023/03/23 07:07:02;;;;;;;7.47;5.37;;;13.60;99.90;;;;;;4945783;28;20213;-65
2023/03/23 07:09:33;;;;;;;8.47;5.57;;;13.70;99.90;;;;;;4950115;28;20201;-65
2023/03/23 07:12:01;;;;;;;9.93;5.10;;;13.70;99.90;;;;;;4951992;28;20206;-64
2023/03/23 07:14:35;;;;;;;8.93;5.27;;;13.80;99.90;;;;;;4952068;28;20210;-64
2023/03/23 07:17:03;;;;;;;5.13;4.33;;;14.00;99.90;;;;;;4952405;28;20198;-63
2023/03/23 07:19:32;;;;;;;10.17;4.83;;;13.90;99.90;;;;;;4952449;28;20749;-64
2023/03/23 07:22:00;;;;;;;10.53;5.97;;;14.00;99.90;;;;;;4949154;28;20691;-65
2023/03/23 07:24:27;;;;;;;7.17;5.27;;;14.00;99.90;;;;;;4952732;28;20220;-65
2023/03/23 07:27:13;;;;;;;13.33;5.77;;;14.10;99.90;;;;;;4946164;28;20565;-64
2023/03/23 07:29:42;;;;;;;7.10;5.47;;;14.10;99.90;;;;;;4953376;28;20285;-64
2023/03/23 07:32:16;;;;;;;7.63;4.63;;;14.10;99.90;;;;;;4953673;28;20201;-65
2023/03/23 07:34:43;;;;;;;8.03;5.07;;;14.10;99.90;;;;;;4964524;28;20680;-64
2023/03/23 07:37:35;;;;;;;5.97;4.03;;;14.20;99.90;;;;;;4957944;28;20207;-65
2023/03/23 07:40:14;;;;;;;5.93;3.67;;;14.20;99.90;;;;;;4938590;28;20202;-65
2023/03/23 07:42:43;;;;;;;9.57;4.40;;;14.30;99.90;;;;;;4938293;28;20216;-65
2023/03/23 07:45:13;;;;;;;4.97;3.57;;;14.30;99.90;;;;;;4964680;28;20202;-65
2023/03/23 07:47:43;;;;;;;4.73;3.30;;;14.40;99.90;;;;;;4952037;28;20378;-65
2023/03/23 07:50:11;;;;;;;6.67;3.20;;;14.40;99.90;;;;;;4938773;28;20670;-65
2023/03/23 07:52:42;;;;;;;3.37;3.00;;;14.50;99.90;;;;;;4940392;28;20191;-65
2023/03/23 07:55:17;;;;;;;3.93;3.50;;;14.60;99.90;;;;;;4944944;28;20677;-65
2023/03/23 07:58:08;;;;;;;2.87;2.57;;;14.70;99.90;;;;;;4939551;28;20208;-64
2023/03/23 08:00:38;;;;;;;6.80;3.70;;;14.60;99.90;;;;;;4944311;28;20612;-64
2023/03/23 08:03:09;;;;;;;4.90;3.00;;;14.70;99.90;;;;;;4966515;28;20239;-64
2023/03/23 08:06:09;;;;;;;2.97;2.77;;;14.70;99.90;;;;;;4940249;28;20260;-65
2023/03/23 08:08:49;;;;;;;3.70;3.20;;;14.70;99.90;;;;;;4961260;28;20254;-64
2023/03/23 08:11:51;;;;;;;3.43;2.97;;;14.70;99.90;;;;;;4966019;28;20798;-64
2023/03/23 08:14:55;;;;;;;6.37;4.00;;;14.70;99.90;;;;;;4955351;28;20208;-65
2023/03/23 08:18:00;;;;;;;4.90;3.60;;;14.70;99.90;;;;;;4953034;28;20305;-65
2023/03/23 08:20:48;;;;;;;7.00;3.97;;;14.70;99.90;;;;;;4957134;28;20219;-64
2023/03/23 08:23:28;;;;;;;4.60;3.73;;;14.70;99.50;;;;;;4937219;28;20207;-64
2023/03/23 08:26:11;;;;;;;5.67;3.67;;;14.60;99.50;;;;;;4962328;28;20235;-63
2023/03/23 08:28:53;;;;;;;5.83;3.53;;;14.70;99.60;;;;;;4949080;28;20261;-63
2023/03/23 08:31:45;;;;;;;4.60;3.17;;;14.70;99.60;;;;;;4949727;28;20210;-64
2023/03/23 08:34:30;;;;;;;8.37;4.03;;;14.70;99.50;;;;;;4946715;28;20204;-63
2023/03/23 08:37:04;;;;;;;6.53;3.80;;;14.70;99.40;;;;;;4963388;28;20195;-64
2023/03/23 08:39:31;;;;;;;7.27;3.67;;;14.70;99.30;;;;;;4964539;28;20223;-63
2023/03/23 08:42:28;;;;;;;6.97;3.57;;;14.70;99.30;;;;;;4959492;28;20281;-64
2023/03/23 08:45:26;;;;;;;6.57;3.60;;;14.70;99.30;;;;;;4929345;28;20260;-64
2023/03/23 08:48:07;;;;;;;8.17;3.70;;;14.60;99.30;;;;;;4962260;28;20786;-64
2023/03/23 08:51:06;;;;;;;3.40;2.97;;;14.70;99.30;;;;;;4914788;28;20751;-64
2023/03/23 08:53:40;;;;;;;4.43;3.13;;;14.70;99.20;;;;;;4964001;28;20222;-63
2023/03/23 08:56:27;;;;;;;5.87;3.70;;;14.70;99.20;;;;;;4968444;28;20229;-65
2023/03/23 08:59:14;;;;;;;6.00;3.03;;;14.70;99.30;;;;;;4952016;28;20215;-63
2023/03/23 09:02:03;;;;;;;4.13;2.63;;;14.70;99.30;;;;;;4949250;28;20255;-63
2023/03/23 09:04:38;;;;;;;3.40;2.50;;;14.70;99.50;;;;;;4951118;28;20203;-64
2023/03/23 09:07:25;;;;;;;3.47;2.87;;;14.70;99.60;;;;;;4951370;28;20701;-65
2023/03/23 09:09:52;;;;;;;3.40;2.80;;;14.70;99.80;;;;;;4968595;28;20221;-64
2023/03/23 09:12:20;;;;;;;3.30;2.30;;;14.70;99.90;;;;;;4957676;28;20279;-65
2023/03/23 09:14:47;;;;;;;3.17;2.77;;;14.70;99.90;;;;;;4968797;28;20294;-64
2023/03/23 09:17:14;;;;;;;2.10;1.90;;;14.70;99.90;;;;;;4964073;28;20207;-64
2023/03/23 09:19:41;;;;;;;6.00;3.17;;;14.80;99.90;;;;;;4962537;28;20233;-65
2023/03/23 09:22:09;;;;;;;2.50;2.30;;;14.80;99.90;;;;;;4948611;28;20623;-64
2023/03/23 09:24:38;;;;;;;4.90;2.60;;;14.80;99.90;;;;;;4968844;28;20733;-64
2023/03/23 09:27:05;;;;;;;4.73;2.80;;;14.80;99.90;;;;;;4968239;28;20240;-64
2023/03/23 09:29:32;;;;;;;5.47;2.87;;;14.80;99.90;;;;;;4965552;28;20200;-63
2023/03/23 09:32:01;;;;;;;4.03;2.20;;;14.80;99.90;;;;;;4971929;28;20622;-64
2023/03/23 09:34:29;;;;;;;5.47;3.17;;;14.80;99.90;;;;;;4963968;28;20283;-64
2023/03/23 09:36:56;;;;;;;7.30;3.10;;;14.80;99.90;;;;;;4967130;28;20565;-63
2023/03/23 09:39:23;;;;;;;3.23;2.67;;;14.80;99.90;;;;;;4950619;28;20197;-63
2023/03/23 09:42:09;;;;;;;3.50;2.30;;;14.80;99.90;;;;;;4969715;28;20203;-64
2023/03/23 09:44:49;;;;;;;4.20;2.77;;;14.80;99.90;;;;;;4968441;28;20195;-64
2023/03/23 09:47:21;;;;;;;4.37;2.93;;;14.80;99.90;;;;;;4967167;28;20211;-63
2023/03/23 09:49:54;;;;;;;3.90;3.30;;;14.70;99.90;;;;;;4966281;28;20207;-64
2023/03/23 09:52:22;;;;;;;4.97;3.57;;;14.70;99.90;;;;;;4947967;28;20827;-64
2023/03/23 09:54:51;;;;;;;4.17;3.60;;;14.80;99.90;;;;;;4944250;28;20199;-64
2023/03/23 09:57:27;;;;;;;3.17;2.80;;;14.80;99.90;;;;;;4966105;28;20219;-64
2023/03/23 10:00:04;;;;;;;3.00;2.70;;;14.80;99.90;;;;;;4966606;28;20258;-63
2023/03/23 10:02:51;;;;;;;4.03;2.80;;;14.80;99.90;;;;;;4964201;28;20296;-63
2023/03/23 10:05:31;;;;;;;2.60;2.33;;;14.80;99.90;;;;;;4952447;28;20633;-64
2023/03/23 10:08:01;;;;;;;4.30;2.50;;;14.80;99.90;;;;;;4970786;28;20292;-65
2023/03/23 10:10:40;;;;;;;2.93;2.63;;;14.90;99.90;;;;;;4971131;28;20279;-64
2023/03/23 10:13:16;;;;;;;3.43;2.30;;;14.80;99.90;;;;;;4960659;28;20199;-63
2023/03/23 10:15:45;;;;;;;3.57;2.33;;;14.90;99.90;;;;;;4953508;28;20658;-63
2023/03/23 10:18:18;;;;;;;2.57;2.20;;;14.90;99.90;;;;;;4962734;28;20197;-64
2023/03/23 10:20:49;;;;;;;2.80;2.27;;;14.80;99.90;;;;;;4967820;28;20542;-64
2023/03/23 10:23:42;;;;;;;4.63;2.93;;;14.90;99.90;;;;;;4959842;28;20318;-63
2023/03/23 10:26:19;;;;;;;2.97;2.40;;;14.90;99.90;;;;;;4947639;28;20236;-63
2023/03/23 10:28:53;;;;;;;4.73;2.23;;;14.80;99.90;;;;;;4965725;28;20629;-64
2023/03/23 10:31:24;;;;;;;2.33;2.07;;;14.80;99.90;;;;;;4964368;28;20220;-64
2023/03/23 10:33:58;;;;;;;3.00;1.97;;;14.80;99.90;;;;;;4967584;28;20200;-64
2023/03/23 10:36:30;;;;;;;2.00;1.90;;;14.80;99.90;;;;;;4969906;28;20197;-64
2023/03/23 10:39:04;;;;;;;3.37;1.83;;;14.80;99.90;;;;;;4963842;28;20200;-62
2023/03/23 10:41:31;;;;;;;2.20;2.00;;;14.80;99.90;;;;;;4960965;28;20200;-64
2023/03/23 10:44:01;;;;;;;2.30;2.10;;;14.80;99.90;;;;;;4949120;28;20204;-63
2023/03/23 10:46:39;;;;;;;3.07;2.00;;;14.80;99.90;;;;;;4967743;28;20200;-65
2023/03/23 10:49:14;;;;;;;3.10;1.70;;;14.80;99.90;;;;;;4967280;28;20205;-63
2023/03/23 10:51:45;;;;;;;1.80;1.70;;;14.80;99.90;;;;;;4952232;28;20734;-63
2023/03/23 10:54:12;;;;;;;2.60;1.70;;;14.80;99.90;;;;;;4961973;28;20670;-63
2023/03/23 10:56:42;;;;;;;1.90;1.80;;;14.80;99.90;;;;;;4948113;28;20208;-63
2023/03/23 10:59:17;;;;;;;2.53;1.70;;;14.80;99.90;;;;;;4965671;28;20251;-65
2023/03/23 11:01:55;;;;;;;4.90;1.47;;;14.80;99.90;;;;;;4949051;28;20284;-63
2023/03/23 11:04:25;;;;;;;1.37;1.27;;;14.80;99.90;;;;;;4965062;28;20239;-64
2023/03/23 11:06:56;;;;;;;1.50;1.40;;;14.80;99.90;;;;;;4965171;28;20227;-63
2023/03/23 11:09:35;;;;;;;2.33;1.40;;;14.80;99.90;;;;;;4964803;28;20279;-64
2023/03/23 11:12:03;;;;;;;1.40;1.30;;;14.80;99.90;;;;;;4966473;28;20196;-63
2023/03/23 11:14:34;;;;;;;1.70;1.60;;;14.80;99.90;;;;;;4969274;28;20201;-63
2023/03/23 11:17:02;;;;;;;1.40;1.30;;;14.80;99.90;;;;;;4944365;28;20217;-63
2023/03/23 11:19:32;;;;;;;1.50;1.40;;;14.80;99.90;;;;;;4959429;28;20235;-63
2023/03/23 11:22:06;;;;;;;2.17;1.80;;;14.80;99.90;;;;;;4962453;28;20642;-63
2023/03/23 11:24:37;;;;;;;1.43;1.33;;;14.90;99.90;;;;;;4967020;28;20545;-63
2023/03/23 11:27:06;;;;;;;1.00;1.00;;;14.90;99.90;;;;;;4962260;28;20661;-64
2023/03/23 11:29:42;;;;;;;1.60;1.20;;;14.90;99.90;;;;;;4967600;28;20602;-63
2023/03/23 11:32:13;;;;;;;3.57;1.50;;;14.90;99.90;;;;;;4954772;28;20672;-63
2023/03/23 11:34:43;;;;;;;2.27;1.50;;;15.00;99.90;;;;;;4967798;28;20509;-64
2023/03/23 11:37:15;;;;;;;3.53;2.20;;;15.10;99.90;;;;;;4947410;28;20211;-62
2023/03/23 11:39:54;;;;;;;2.67;2.10;;;15.00;99.90;;;;;;4966950;28;20231;-63
2023/03/23 11:42:27;;;;;;;2.07;1.83;;;15.00;99.90;;;;;;4942949;28;20208;-64
2023/03/23 11:45:17;;;;;;;2.33;1.77;;;15.00;99.90;;;;;;4963505;28;20208;-64
2023/03/23 11:47:57;;;;;;;2.47;1.57;;;15.00;99.90;;;;;;4962653;28;20209;-62
2023/03/23 11:50:30;;;;;;;1.73;1.63;;;15.00;99.90;;;;;;4970120;28;20227;-63
2023/03/23 11:53:03;;;;;;;2.00;1.90;;;14.90;99.90;;;;;;4961077;28;20200;-63
2023/03/23 11:55:37;;;;;;;1.70;1.60;;;14.90;99.90;;;;;;4963050;28;20203;-65
2023/03/23 11:58:12;;;;;;;1.60;1.50;;;14.90;99.90;;;;;;4959973;28;20189;-64
2023/03/23 12:00:49;;;;;;;2.97;1.60;;;14.90;99.90;;;;;;4965142;28;20282;-63
2023/03/23 12:03:48;;;;;;;3.00;1.50;;;15.00;99.90;;;;;;4966613;28;20244;-65
2023/03/23 12:06:23;;;;;;;2.83;1.50;;;15.10;99.90;;;;;;4961655;28;20269;-62
2023/03/23 12:12:17;;;;;;;1.80;1.37;;;15.70;99.90;;;;;;4950603;28;20207;-63
2023/03/23 12:14:53;;;;;;;1.50;1.40;;;16.00;99.90;;;;;;4943525;28;20210;-65
2023/03/23 12:17:33;;;;;;;1.00;1.00;;;16.10;99.90;;;;;;4949568;28;20311;-64
2023/03/23 12:20:16;;;;;;;1.17;1.10;;;16.20;99.90;;;;;;4950086;28;20347;-64
2023/03/23 12:22:58;;;;;;;1.60;1.50;;;16.20;99.90;;;;;;4945300;28;20208;-63
2023/03/23 12:26:09;;;;;;;1.00;1.00;;;16.10;99.90;;;;;;4959190;28;20201;-64
2023/03/23 12:29:00;;;;;;;1.47;1.37;;;16.20;99.90;;;;;;4952652;28;20224;-64
2023/03/23 12:31:34;;;;;;;1.50;1.40;;;16.20;99.90;;;;;;4960915;28;20236;-64
2023/03/23 12:34:11;;;;;;;1.40;1.30;;;16.10;99.90;;;;;;4968641;28;20254;-64
2023/03/23 12:36:57;;;;;;;1.33;1.23;;;16.20;99.90;;;;;;4957976;28;20255;-63
2023/03/23 12:39:58;;;;;;;1.40;1.10;;;16.40;99.90;;;;;;4964473;28;20284;-63
2023/03/23 12:42:33;;;;;;;1.00;1.00;;;16.80;99.90;;;;;;4960300;28;20750;-63
2023/03/23 12:45:08;;;;;;;1.60;1.20;;;17.10;99.90;;;;;;4962690;28;20680;-63
2023/03/23 12:47:44;;;;;;;1.07;1.03;;;17.10;99.90;;;;;;4958345;28;20216;-63
2023/03/23 12:50:20;;;;;;;1.00;1.00;;;17.00;99.80;;;;;;4938660;28;20652;-63
2023/03/23 12:52:59;;;;;;;1.03;1.00;;;16.90;99.70;;;;;;4940324;28;20205;-62
2023/03/23 12:55:35;;;;;;;0.90;0.90;;;16.70;99.90;;;;;;4953526;28;20228;-64
2023/03/23 12:58:06;;;;;;;1.30;1.20;;;16.50;99.90;;;;;;4964219;28;20194;-65
2023/03/23 13:00:53;;;;;;;1.93;1.27;;;16.30;99.90;;;;;;4962829;28;20201;-65
2023/03/23 13:03:27;;;;;;;3.47;0.90;;;16.10;99.90;;;;;;4966634;28;20279;-65
2023/03/23 13:06:02;;;;;;;1.83;1.20;;;16.00;99.90;;;;;;4970849;28;20215;-66
2023/03/23 13:08:33;;;;;;;1.83;1.03;;;15.90;99.90;;;;;;4949749;28;20793;-65
2023/03/23 13:11:04;;;;;;;1.00;1.00;;;15.90;99.90;;;;;;4952319;28;20237;-65
2023/03/23 13:13:45;;;;;;;2.17;1.50;;;16.10;99.90;;;;;;4968666;28;20204;-64
2023/03/23 13:16:20;;;;;;;1.47;1.37;;;16.20;99.90;;;;;;4973542;28;20196;-65
2023/03/23 13:18:59;;;;;;;1.30;1.20;;;16.10;99.90;;;;;;4955566;28;20279;-64
2023/03/23 13:21:31;;;;;;;1.20;1.10;;;16.20;99.90;;;;;;4964489;28;20255;-64
2023/03/23 13:24:07;;;;;;;1.27;1.20;;;16.00;99.90;;;;;;4967832;28;20207;-64
2023/03/23 13:26:47;;;;;;;1.13;1.13;;;16.40;99.90;;;;;;4966232;28;20707;-65